Daniel, WY (83115)

10:48 PM MDT on August 20, 2014 (GMT -0600)
APRSWXNET Daniel WY US | Change Station
CLOSE
Current Station
Personal Weather Station
Location: Daniel, WY
Elevation: 7461 ft
Nearby Weather Stations

Elev 7461 ft 42.99 °N, 110.09 °W | Updated 46 minutes ago

Mostly Cloudy
Mostly Cloudy
50 °F
Feels Like 49 °F
N
4
Wind Variable Wind from NW
Gusts 0.0 mph

Today
High -- | Low -- °F
--% Chance of Precip.
Yesterday
High -- | Low -- °F
Precip. -- in
6:32 AM 8:14 PM
Waning Crescent, 17% visible
Pressure 30.19 in
Visibility 10.0 miles
Clouds Scattered Clouds 7500 ft
Mostly Cloudy 8500 ft
Mostly Cloudy 11000 ft
Windchill 49 °F
Dew Point 44 °F
Humidity 81%
Rainfall -999.00 in
Snow Depth 0 in , 0 in , 2 in
UV 0 out of 12
Pollen 9.00 out of 12
Air Quality Not available.
Flu Activity Not available.
METAR KPNA 210435Z AUTO 29004KT 10SM SCT075 BKN085 BKN110 10/06 A3019 RMK AO2

More Conditions Fewer Conditions

Pressure 30.19 in
Visibility 10.0 miles
Clouds Scattered Clouds 7500 ft
Mostly Cloudy 8500 ft
Mostly Cloudy 11000 ft
Windchill 49 °F
Dew Point 44 °F
Humidity 81%
Rainfall -999.00 in
Snow Depth 0 in , 0 in , 2 in
UV 0 out of 12
Pollen 9.00 out of 12
Air Quality Not available.
Flu Activity Not available.
METAR KPNA 210435Z AUTO 29004KT 10SM SCT075 BKN085 BKN110 10/06 A3019 RMK AO2

More Conditions Fewer Conditions

10-Day Weather Forecast

Almanac

Astronomy

Aug. 20, 2014 Rise Set
Actual Time 6:32 AM MDT 8:14 PM MDT
Civil Twilight 6:02 AM MDT 8:45 PM MDT
Nautical Twilight 5:25 AM MDT 9:21 PM MDT
Astronomical Twilight 4:46 AM MDT 10:00 PM MDT
Moon 2:12 AM MDT (8/20) 5:05 PM MDT (8/20)
Length of Visible Light 14h 42m
Length of Day
13h 42m
Tomorrow will be 2m 39s shorter.
Waning Crescent, 17% of the Moon is Illuminated
Aug 21
Waning Crescent
Aug 25
New
Sep 2
First Quarter
Sep 8
Full
Sep 15
Last Quarter

Yesterday's Extremes

State Highs State Lows

Community

WunderPhotos

Upload Photos

1,745,856 photos uploaded!

Nearby

Snow Depth

Station Depth Elevation
East Rim Divide 0 in 7930 ft
Loomis Park 0 in 8240 ft
New Fork Lake 2 in 8340 ft
Kendall R.S. 1 in 7740 ft
Gros Ventre Summit 0 in 8750 ft

Earthquake Activity

City Distance Mag. Time & Date
No recent earthquake activity has been reported nearby.
Minimum magnitude displayed is 2.5.

Coastal Water Temperatures

Place Temperature
No Stations Reporting

Nearby Weather Stations